createdAt,value
2018-07-26T00:07:20.252Z,3.38
2018-07-26T00:17:17.632Z,3.38
2018-07-26T00:27:13.364Z,3.38
2018-07-26T00:37:11.683Z,3.38
2018-07-26T00:47:10.405Z,3.38
2018-07-26T00:57:07.234Z,3.38
2018-07-26T01:07:04.180Z,3.38
2018-07-26T01:16:59.216Z,3.37
2018-07-26T01:26:55.556Z,3.37
2018-07-26T01:36:53.515Z,3.37
2018-07-26T01:46:51.250Z,3.37
2018-07-26T01:56:46.658Z,3.37
2018-07-26T02:06:41.153Z,3.37
2018-07-26T02:16:38.229Z,3.37
2018-07-26T02:26:32.948Z,3.37
2018-07-26T02:36:30.558Z,3.37
2018-07-26T02:46:30.594Z,3.37
2018-07-26T02:56:27.664Z,3.37
2018-07-26T03:06:24.778Z,3.37
2018-07-26T03:16:22.792Z,3.37
2018-07-26T03:26:22.147Z,3.37
2018-07-26T03:36:17.693Z,3.37
2018-07-26T03:46:12.031Z,3.37
2018-07-26T03:56:10.553Z,3.37
2018-07-26T04:06:07.138Z,3.37
2018-07-26T04:16:00.291Z,3.37
2018-07-26T04:25:59.779Z,3.39
2018-07-26T04:35:55.885Z,3.39
2018-07-26T04:45:53.267Z,3.39
2018-07-26T04:55:51.084Z,3.39
2018-07-26T05:05:49.352Z,3.39
2018-07-26T05:15:45.231Z,3.40
2018-07-26T05:25:40.352Z,3.40
2018-07-26T05:35:38.066Z,3.41
2018-07-26T05:45:36.653Z,3.40
2018-07-26T05:55:36.031Z,3.41
2018-07-26T06:05:32.807Z,3.41
2018-07-26T06:15:31.200Z,3.42
2018-07-26T06:25:30.787Z,3.42
2018-07-26T06:35:26.164Z,3.43
2018-07-26T06:45:24.808Z,3.43
2018-07-26T06:55:22.614Z,3.44
2018-07-26T07:05:16.446Z,3.44
2018-07-26T07:15:15.005Z,3.44
2018-07-26T07:25:08.378Z,3.43
2018-07-26T07:35:06.135Z,3.43
2018-07-26T07:45:06.179Z,3.42
2018-07-26T07:55:02.422Z,3.42
2018-07-26T08:04:58.922Z,3.42
2018-07-26T08:14:57.922Z,3.42
2018-07-26T08:24:56.815Z,3.42
2018-07-26T08:34:50.791Z,3.42
2018-07-26T08:44:47.234Z,3.42
2018-07-26T08:54:45.855Z,3.41
2018-07-26T09:04:44.227Z,3.41
2018-07-26T09:14:40.763Z,3.41
2018-07-26T09:24:40.654Z,3.42
2018-07-26T09:34:37.686Z,3.42
2018-07-26T09:44:35.589Z,3.42
2018-07-26T09:54:34.251Z,3.42
2018-07-26T10:04:29.680Z,3.42
2018-07-26T10:14:28.558Z,3.42
2018-07-26T10:24:08.095Z,3.42
2018-07-26T10:34:03.021Z,3.41
2018-07-26T10:44:02.098Z,3.41
2018-07-26T10:54:01.624Z,3.41
2018-07-26T11:03:40.524Z,3.41
2018-07-26T11:13:35.621Z,3.41
2018-07-26T11:23:27.997Z,3.40
2018-07-26T11:33:22.789Z,3.42
2018-07-26T11:43:15.595Z,3.42
2018-07-26T11:53:16.114Z,3.41
2018-07-26T12:03:14.715Z,3.41
2018-07-26T12:13:16.123Z,3.41
2018-07-26T12:23:14.499Z,3.41
2018-07-26T12:33:07.351Z,3.41
2018-07-26T12:43:04.008Z,3.40
2018-07-26T12:52:57.925Z,3.42
2018-07-26T13:02:51.748Z,3.41
2018-07-26T13:12:50.430Z,3.41
2018-07-26T13:22:45.162Z,3.42
2018-07-26T13:32:42.568Z,3.42
2018-07-26T13:42:41.960Z,3.42
2018-07-26T13:52:37.786Z,3.42
2018-07-26T14:02:32.031Z,3.44
2018-07-26T14:12:26.470Z,3.42
2018-07-26T14:22:24.484Z,3.42
2018-07-26T14:32:19.850Z,3.42
2018-07-26T14:42:16.456Z,3.43
2018-07-26T14:52:16.015Z,3.43
2018-07-26T15:02:16.343Z,3.43
2018-07-26T15:12:23.135Z,3.43
2018-07-26T15:22:15.299Z,3.43
2018-07-26T15:32:11.339Z,3.43
2018-07-26T15:42:02.348Z,3.42
2018-07-26T15:51:54.740Z,3.42
2018-07-26T16:01:49.553Z,3.42
2018-07-26T16:11:43.917Z,3.43
2018-07-26T16:21:38.765Z,3.43
2018-07-26T16:31:34.600Z,3.44
2018-07-26T16:41:30.789Z,3.44
2018-07-26T16:51:23.575Z,3.43
2018-07-26T17:01:17.451Z,3.43
2018-07-26T17:11:15.730Z,3.43
2018-07-26T17:21:09.060Z,3.44
2018-07-26T17:31:06.109Z,3.43
2018-07-26T17:41:05.163Z,3.43
2018-07-26T17:51:02.686Z,3.43
2018-07-26T18:00:58.950Z,3.43
2018-07-26T18:10:54.118Z,3.43
2018-07-26T18:20:51.819Z,3.43
2018-07-26T18:30:47.168Z,3.42
2018-07-26T18:40:43.346Z,3.42
2018-07-26T18:50:35.762Z,3.42
2018-07-26T19:00:32.194Z,3.42
2018-07-26T19:10:26.408Z,3.41
2018-07-26T19:20:24.068Z,3.41
2018-07-26T19:30:19.588Z,3.41
2018-07-26T19:40:13.680Z,3.41
2018-07-26T19:50:09.930Z,3.41
2018-07-26T20:00:04.055Z,3.41
2018-07-26T20:09:57.128Z,3.40
2018-07-26T20:19:51.749Z,3.40
2018-07-26T20:29:46.445Z,3.40
2018-07-26T20:39:42.214Z,3.40
2018-07-26T20:49:37.926Z,3.40
2018-07-26T20:59:24.496Z,3.40
2018-07-26T21:09:20.103Z,3.40
2018-07-26T21:19:18.166Z,3.40
2018-07-26T21:29:16.457Z,3.40
2018-07-26T21:39:13.540Z,3.39
2018-07-26T21:49:09.042Z,3.39
2018-07-26T21:59:06.435Z,3.39
2018-07-26T22:09:05.274Z,3.39
2018-07-26T22:19:01.789Z,3.39
2018-07-26T22:28:55.589Z,3.39
2018-07-26T22:38:53.401Z,3.39
2018-07-26T22:48:52.038Z,3.39
2018-07-26T22:58:49.418Z,3.39
2018-07-26T23:08:44.934Z,3.39
2018-07-26T23:18:40.124Z,3.39
2018-07-26T23:28:36.412Z,3.39
2018-07-26T23:38:31.720Z,3.39
2018-07-26T23:48:27.013Z,3.38
2018-07-26T23:58:23.766Z,3.38
